Time;durP1;ratioP1;P1;durP2;ratioP2;P2;SDS_P1;SDS_P2;PMS_P1;PMS_P2;Temp;Humidity;BMP_temperature;BMP_pressure;BME280_temperature;BME280_humidity;BME280_pressure;Samples;Min_cycle;Max_cycle;Signal;HPM_P1;HPM_P2
2021/07/03 00:00:48;;;;;;;1.85;1.08;;;23.80;57.20;;;;;;6340489;28;20047;-75
2021/07/03 00:03:49;;;;;;;0.88;0.88;;;23.80;57.30;;;;;;6307116;28;20136;-74
2021/07/03 00:06:50;;;;;;;0.90;0.90;;;23.80;57.30;;;;;;6238541;28;20037;-73
2021/07/03 00:09:51;;;;;;;1.10;1.00;;;23.80;57.20;;;;;;6234501;28;20044;-74
2021/07/03 00:12:51;;;;;;;1.20;1.10;;;23.80;57.30;;;;;;6211880;28;20022;-74
2021/07/03 00:15:53;;;;;;;1.10;1.00;;;23.80;57.20;;;;;;6335557;28;20032;-74
2021/07/03 00:18:53;;;;;;;1.10;0.98;;;23.80;57.20;;;;;;6312809;28;20404;-74
2021/07/03 00:21:55;;;;;;;1.33;1.00;;;23.80;57.30;;;;;;6236326;28;20040;-75
2021/07/03 00:24:55;;;;;;;1.08;0.98;;;23.80;57.30;;;;;;6237605;28;20059;-74
2021/07/03 00:27:56;;;;;;;1.73;1.10;;;23.80;57.30;;;;;;6237856;28;20021;-72
2021/07/03 00:30:56;;;;;;;1.20;0.90;;;23.80;57.30;;;;;;6237713;28;20049;-73
2021/07/03 00:33:57;;;;;;;1.17;1.08;;;23.80;57.30;;;;;;6235809;28;20168;-74
2021/07/03 00:36:58;;;;;;;1.20;1.10;;;23.80;57.30;;;;;;6238065;28;20021;-74
2021/07/03 00:39:59;;;;;;;0.90;0.90;;;23.80;57.30;;;;;;6236490;28;20053;-75
2021/07/03 00:43:00;;;;;;;1.10;1.00;;;23.80;57.30;;;;;;6237568;28;20048;-74
2021/07/03 00:46:00;;;;;;;1.02;0.90;;;23.80;57.20;;;;;;6322228;28;20507;-74
2021/07/03 00:49:01;;;;;;;1.50;1.17;;;23.80;57.30;;;;;;6326380;28;20340;-73
2021/07/03 00:52:06;;;;;;;1.10;1.00;;;23.80;57.30;;;;;;6236016;28;20825;-74
2021/07/03 00:55:07;;;;;;;1.15;1.05;;;23.80;57.30;;;;;;6224301;28;20426;-73
2021/07/03 00:58:08;;;;;;;1.15;1.00;;;23.80;57.30;;;;;;6237253;28;20053;-74
2021/07/03 01:01:08;;;;;;;1.10;1.00;;;23.80;57.30;;;;;;6235629;28;20421;-73
2021/07/03 01:04:09;;;;;;;0.93;0.90;;;23.80;57.30;;;;;;6236879;28;20025;-73
2021/07/03 01:07:11;;;;;;;1.10;1.00;;;23.80;57.30;;;;;;6235636;28;20108;-72
2021/07/03 01:10:24;;;;;;;1.20;1.05;;;23.80;57.30;;;;;;6231053;28;20439;-73
2021/07/03 01:13:26;;;;;;;1.17;1.08;;;23.80;57.30;;;;;;6211523;28;20036;-73
2021/07/03 01:16:27;;;;;;;0.85;0.82;;;23.80;57.30;;;;;;6226938;28;20755;-74
2021/07/03 01:19:28;;;;;;;1.08;0.95;;;23.80;57.30;;;;;;6236743;28;20018;-71
2021/07/03 01:22:29;;;;;;;1.30;1.20;;;23.80;57.30;;;;;;6235203;28;20201;-73
2021/07/03 01:25:29;;;;;;;1.02;0.88;;;23.80;57.30;;;;;;6235048;28;20025;-75
2021/07/03 01:28:30;;;;;;;1.40;1.17;;;23.80;57.30;;;;;;6234923;28;20032;-73
2021/07/03 01:31:30;;;;;;;1.30;1.20;;;23.80;57.30;;;;;;6294913;28;20116;-74
2021/07/03 01:34:31;;;;;;;1.33;1.13;;;23.80;57.30;;;;;;6338175;28;20057;-74
2021/07/03 01:37:33;;;;;;;0.95;0.90;;;23.80;57.30;;;;;;6247224;28;20509;-74
2021/07/03 01:40:34;;;;;;;1.15;1.02;;;23.80;57.30;;;;;;6234617;28;20044;-74
2021/07/03 01:43:34;;;;;;;1.30;1.20;;;23.80;57.30;;;;;;6234452;28;20486;-74
2021/07/03 01:46:35;;;;;;;0.80;0.80;;;23.80;57.30;;;;;;6236126;28;20053;-75
2021/07/03 01:49:41;;;;;;;0.75;0.73;;;23.80;57.30;;;;;;6236269;28;20093;-74
2021/07/03 01:52:41;;;;;;;0.70;0.70;;;23.80;57.30;;;;;;6232728;28;20050;-75
2021/07/03 01:55:42;;;;;;;1.05;0.90;;;23.80;57.30;;;;;;6214191;28;20550;-75
2021/07/03 01:58:42;;;;;;;1.40;1.10;;;23.80;57.30;;;;;;6234991;28;20052;-73
2021/07/03 02:01:43;;;;;;;1.45;0.90;;;23.80;57.30;;;;;;6235926;28;20025;-74
2021/07/03 02:04:43;;;;;;;1.10;1.00;;;23.80;57.30;;;;;;6234675;28;20022;-73
2021/07/03 02:07:46;;;;;;;1.10;1.00;;;23.80;57.30;;;;;;6235601;28;20371;-74
2021/07/03 02:10:47;;;;;;;1.10;1.00;;;23.80;57.30;;;;;;6228619;28;20022;-74
2021/07/03 02:13:48;;;;;;;0.95;0.85;;;23.80;57.30;;;;;;6235415;28;20031;-73
2021/07/03 02:16:49;;;;;;;0.98;0.90;;;23.80;57.30;;;;;;6277896;28;20385;-74
2021/07/03 02:19:49;;;;;;;1.00;0.90;;;23.80;57.30;;;;;;6338975;28;20045;-72
2021/07/03 02:22:51;;;;;;;1.15;1.00;;;23.80;57.30;;;;;;6337592;28;20042;-73
2021/07/03 02:25:51;;;;;;;1.27;1.00;;;23.80;57.30;;;;;;6333401;28;20031;-73
2021/07/03 02:28:53;;;;;;;1.02;0.88;;;23.80;57.30;;;;;;6233605;28;20025;-74
2021/07/03 02:31:54;;;;;;;1.35;1.10;;;23.80;57.30;;;;;;6233981;28;20040;-72
2021/07/03 02:34:54;;;;;;;1.05;0.95;;;23.80;57.30;;;;;;6235323;28;20030;-74
2021/07/03 02:37:55;;;;;;;1.55;1.20;;;23.80;57.30;;;;;;6234545;28;20283;-74
2021/07/03 02:40:55;;;;;;;0.93;0.88;;;23.80;57.30;;;;;;6235407;28;20557;-72
2021/07/03 02:43:59;;;;;;;1.10;0.90;;;23.80;57.30;;;;;;6234668;28;20021;-73
2021/07/03 02:46:59;;;;;;;1.20;1.10;;;23.80;57.30;;;;;;6266788;28;20016;-71
2021/07/03 02:50:00;;;;;;;1.17;1.08;;;23.80;57.30;;;;;;6336904;28;20565;-74
2021/07/03 02:53:01;;;;;;;0.93;0.90;;;23.80;57.40;;;;;;6308647;28;20357;-74
2021/07/03 02:56:02;;;;;;;1.02;0.93;;;23.80;57.30;;;;;;6210660;28;20037;-74
2021/07/03 02:59:03;;;;;;;1.25;1.10;;;23.80;57.40;;;;;;6232202;28;20095;-74
2021/07/03 03:02:03;;;;;;;1.08;0.98;;;23.80;57.30;;;;;;6259611;28;20028;-74
2021/07/03 03:05:06;;;;;;;1.30;1.10;;;23.80;57.40;;;;;;6276522;28;20040;-73
2021/07/03 03:08:07;;;;;;;0.85;0.85;;;23.80;57.30;;;;;;6276620;28;20408;-73
2021/07/03 03:11:07;;;;;;;1.10;1.00;;;23.80;57.30;;;;;;6338409;28;20103;-72
2021/07/03 03:14:08;;;;;;;1.15;1.05;;;23.80;57.30;;;;;;6262955;28;20305;-73
2021/07/03 03:17:08;;;;;;;1.17;1.08;;;23.80;57.30;;;;;;6238220;28;20080;-74
2021/07/03 03:20:11;;;;;;;1.40;1.10;;;23.80;57.40;;;;;;6337076;28;20020;-73
2021/07/03 03:23:12;;;;;;;1.38;1.02;;;23.80;57.30;;;;;;6299705;28;20025;-74
2021/07/03 03:26:12;;;;;;;1.05;0.95;;;23.80;58.10;;;;;;6233866;28;20135;-74
2021/07/03 03:29:13;;;;;;;0.90;0.90;;;23.80;57.30;;;;;;6233023;28;20033;-74
2021/07/03 03:32:13;;;;;;;1.25;1.00;;;23.80;57.30;;;;;;6233534;28;20372;-75
2021/07/03 03:35:14;;;;;;;0.93;0.90;;;23.80;58.00;;;;;;6335153;28;20488;-74
2021/07/03 03:38:15;;;;;;;1.05;0.95;;;23.80;57.40;;;;;;6340816;28;20028;-73
2021/07/03 03:41:15;;;;;;;1.20;1.05;;;23.80;57.40;;;;;;6341218;28;20019;-72
2021/07/03 03:44:16;;;;;;;1.10;1.00;;;23.80;57.30;;;;;;6340246;28;20019;-75
2021/07/03 03:47:16;;;;;;;0.80;0.80;;;23.80;57.40;;;;;;6340181;28;20015;-73
2021/07/03 03:50:17;;;;;;;1.23;1.13;;;23.80;57.40;;;;;;6341994;28;20026;-73
2021/07/03 03:53:17;;;;;;;0.95;0.82;;;23.80;57.40;;;;;;6307010;28;20042;-74
2021/07/03 03:56:18;;;;;;;1.10;1.00;;;23.80;57.40;;;;;;6238676;28;20017;-74
2021/07/03 04:03:16;;;;;;;1.30;1.20;;;23.80;57.30;;;;;;6238883;28;20042;-73
2021/07/03 04:06:16;;;;;;;1.20;1.10;;;23.80;57.40;;;;;;6238608;28;20366;-74
2021/07/03 04:09:17;;;;;;;1.08;1.02;;;23.80;57.40;;;;;;6236881;28;20024;-73
2021/07/03 04:12:18;;;;;;;1.35;1.05;;;23.80;57.40;;;;;;6216564;28;20026;-73
2021/07/03 04:15:18;;;;;;;1.30;1.20;;;23.80;57.40;;;;;;6230900;28;20363;-74
2021/07/03 04:18:19;;;;;;;1.40;1.05;;;23.80;57.40;;;;;;6236307;28;20029;-75
2021/07/03 04:21:19;;;;;;;0.75;0.75;;;23.80;57.30;;;;;;6237563;28;20029;-74
2021/07/03 04:24:20;;;;;;;1.63;1.10;;;23.80;58.00;;;;;;6237544;28;20022;-73
2021/07/03 04:27:20;;;;;;;1.00;0.90;;;23.80;57.40;;;;;;6236364;28;20393;-74
2021/07/03 04:30:22;;;;;;;1.25;0.90;;;23.80;57.40;;;;;;6308461;28;20032;-73
2021/07/03 04:33:22;;;;;;;1.00;0.90;;;23.80;57.40;;;;;;6340694;28;20051;-75
2021/07/03 04:36:23;;;;;;;0.88;0.88;;;23.80;57.40;;;;;;6237873;28;20077;-73
2021/07/03 04:39:24;;;;;;;0.82;0.80;;;23.80;57.40;;;;;;6237780;28;20210;-73
2021/07/03 04:42:25;;;;;;;1.08;0.90;;;23.80;57.30;;;;;;6235762;28;20117;-75
2021/07/03 04:45:25;;;;;;;0.93;0.90;;;23.80;57.40;;;;;;6303024;28;20023;-74
2021/07/03 04:48:26;;;;;;;0.77;0.70;;;23.80;57.40;;;;;;6340625;28;20097;-75
2021/07/03 04:51:27;;;;;;;0.80;0.77;;;23.80;57.40;;;;;;6242128;28;20432;-74
2021/07/03 04:54:27;;;;;;;0.80;0.80;;;23.80;57.40;;;;;;6226264;28;20382;-74
2021/07/03 04:57:28;;;;;;;1.38;1.10;;;23.80;57.40;;;;;;6236254;28;20510;-74
2021/07/03 05:00:28;;;;;;;1.48;1.10;;;23.80;57.40;;;;;;6294667;28;20039;-74
2021/07/03 05:03:29;;;;;;;1.17;1.00;;;23.80;57.40;;;;;;6202868;28;20536;-74
2021/07/03 05:06:29;;;;;;;1.10;0.90;;;23.80;57.40;;;;;;6209918;28;20139;-69
2021/07/03 05:09:30;;;;;;;1.10;1.00;;;23.80;57.30;;;;;;6213313;28;20418;-74
2021/07/03 05:12:32;;;;;;;1.27;1.00;;;23.80;57.40;;;;;;6212068;28;20491;-73
2021/07/03 05:15:33;;;;;;;1.45;1.02;;;23.80;57.40;;;;;;6252254;28;20027;-73
2021/07/03 05:18:33;;;;;;;1.00;0.90;;;23.80;57.40;;;;;;6340585;28;20080;-73
2021/07/03 05:21:34;;;;;;;1.10;1.00;;;23.80;57.40;;;;;;6274784;28;20018;-72
2021/07/03 05:24:34;;;;;;;0.88;0.88;;;23.80;57.40;;;;;;6236483;28;20018;-73
2021/07/03 05:27:35;;;;;;;0.70;0.70;;;23.80;58.00;;;;;;6236115;28;20409;-73
2021/07/03 05:30:36;;;;;;;2.33;1.02;;;23.80;57.40;;;;;;6236484;28;20112;-72
2021/07/03 05:33:36;;;;;;;0.90;0.90;;;23.80;57.40;;;;;;6236209;28;20082;-73
2021/07/03 05:36:37;;;;;;;0.80;0.73;;;23.80;57.40;;;;;;6236108;28;20108;-73
2021/07/03 05:39:38;;;;;;;0.77;0.77;;;23.80;57.40;;;;;;6236455;28;20428;-73
2021/07/03 05:42:39;;;;;;;0.95;0.90;;;23.80;57.40;;;;;;6234705;28;20026;-73
2021/07/03 05:45:40;;;;;;;1.10;1.00;;;23.80;58.00;;;;;;6236007;28;20104;-72
2021/07/03 05:48:42;;;;;;;1.05;0.93;;;23.80;57.40;;;;;;6236037;28;20496;-74
2021/07/03 05:51:43;;;;;;;1.25;1.15;;;23.80;57.40;;;;;;6234621;28;20084;-73
2021/07/03 05:54:44;;;;;;;0.95;0.85;;;23.80;57.40;;;;;;6216554;28;20426;-73
2021/07/03 05:57:45;;;;;;;0.85;0.70;;;23.80;57.40;;;;;;6315558;28;20024;-73
2021/07/03 06:00:46;;;;;;;0.95;0.85;;;23.80;57.40;;;;;;6322809;28;20032;-73
2021/07/03 06:03:46;;;;;;;0.80;0.80;;;23.80;57.40;;;;;;6235809;28;20049;-75
2021/07/03 06:06:47;;;;;;;1.17;1.08;;;23.80;57.40;;;;;;6224830;28;20536;-76
2021/07/03 06:09:47;;;;;;;1.60;1.30;;;23.80;57.40;;;;;;6216906;28;20095;-73
2021/07/03 06:12:48;;;;;;;1.00;0.90;;;23.80;57.40;;;;;;6259506;28;20037;-72
2021/07/03 06:15:48;;;;;;;1.00;0.90;;;23.80;57.40;;;;;;6240526;28;20383;-72
2021/07/03 06:18:49;;;;;;;1.15;0.98;;;23.80;57.40;;;;;;6338945;28;20408;-72
2021/07/03 06:21:50;;;;;;;0.90;0.90;;;23.80;57.40;;;;;;6298573;28;20468;-73
2021/07/03 06:24:50;;;;;;;0.80;0.70;;;23.80;57.40;;;;;;6234342;28;20393;-72
2021/07/03 06:27:51;;;;;;;1.35;1.00;;;23.80;57.40;;;;;;6306434;28;20062;-73
2021/07/03 06:30:52;;;;;;;1.45;0.95;;;23.80;57.40;;;;;;6337355;28;20016;-73
2021/07/03 06:33:55;;;;;;;1.27;0.93;;;23.80;57.40;;;;;;6185314;28;20026;-73
2021/07/03 06:36:55;;;;;;;1.15;0.95;;;23.80;57.40;;;;;;6235191;28;20020;-73
2021/07/03 06:39:56;;;;;;;1.65;0.90;;;23.80;57.40;;;;;;6338925;28;20032;-72
2021/07/03 06:42:57;;;;;;;1.00;0.90;;;23.80;57.40;;;;;;6271579;28;20309;-72
2021/07/03 06:45:57;;;;;;;0.93;0.93;;;23.80;57.40;;;;;;6235850;28;20018;-72
2021/07/03 06:48:58;;;;;;;0.80;0.80;;;23.80;57.40;;;;;;6235494;28;20305;-72
2021/07/03 06:51:58;;;;;;;0.88;0.82;;;23.80;57.40;;;;;;6259895;28;20373;-72
2021/07/03 06:54:59;;;;;;;1.10;1.00;;;23.80;57.40;;;;;;6225980;28;20074;-73
2021/07/03 06:58:00;;;;;;;1.10;1.00;;;23.80;57.40;;;;;;6224480;28;20151;-75
2021/07/03 07:01:00;;;;;;;1.08;0.98;;;23.80;57.40;;;;;;6234073;28;20057;-72
2021/07/03 07:04:01;;;;;;;1.00;0.93;;;23.80;57.40;;;;;;6234872;28;20362;-73
2021/07/03 07:07:02;;;;;;;0.80;0.80;;;23.80;57.40;;;;;;6233855;28;20029;-72
2021/07/03 07:10:04;;;;;;;0.73;0.73;;;23.80;57.40;;;;;;6231633;28;20046;-73
2021/07/03 07:13:06;;;;;;;0.80;0.80;;;23.80;57.40;;;;;;6270048;28;20027;-72
2021/07/03 07:16:07;;;;;;;1.08;0.98;;;23.80;57.40;;;;;;6240723;28;20529;-73
2021/07/03 07:19:08;;;;;;;0.80;0.80;;;23.80;57.40;;;;;;6237689;28;20067;-75
2021/07/03 07:22:09;;;;;;;1.10;1.00;;;23.80;57.40;;;;;;6246973;28;20754;-72
2021/07/03 07:25:10;;;;;;;1.00;0.90;;;23.80;57.40;;;;;;6343017;28;20064;-73
2021/07/03 07:28:11;;;;;;;1.10;1.00;;;23.80;57.40;;;;;;6300972;28;20041;-73
2021/07/03 07:31:12;;;;;;;1.02;0.90;;;23.80;57.40;;;;;;6237476;28;20035;-72
2021/07/03 07:34:12;;;;;;;1.10;1.00;;;23.80;57.40;;;;;;6238236;28;20025;-74
2021/07/03 07:37:13;;;;;;;1.08;0.98;;;23.80;57.40;;;;;;6239098;28;20029;-73
2021/07/03 07:40:14;;;;;;;1.20;1.10;;;23.80;57.50;;;;;;6238315;28;20085;-73
2021/07/03 07:43:15;;;;;;;0.93;0.88;;;23.80;57.40;;;;;;6236781;28;20028;-73
2021/07/03 07:46:16;;;;;;;1.13;1.00;;;23.80;57.40;;;;;;6238603;28;20022;-73
2021/07/03 07:49:16;;;;;;;0.80;0.80;;;23.80;57.40;;;;;;6238369;28;20109;-75
2021/07/03 07:52:17;;;;;;;0.98;0.90;;;23.80;57.40;;;;;;6238066;28;20033;-72
2021/07/03 07:55:17;;;;;;;0.90;0.80;;;23.80;57.40;;;;;;6237021;28;20443;-72
2021/07/03 07:58:18;;;;;;;0.95;0.80;;;23.80;57.40;;;;;;6231782;28;20030;-72
2021/07/03 08:01:19;;;;;;;1.00;0.70;;;23.80;57.40;;;;;;6213310;28;20310;-72
2021/07/03 08:04:19;;;;;;;1.02;0.90;;;23.80;57.40;;;;;;6215040;28;20028;-73
2021/07/03 08:07:20;;;;;;;1.35;0.80;;;23.80;57.50;;;;;;6212485;28;20022;-73
2021/07/03 08:10:21;;;;;;;0.80;0.80;;;23.80;57.40;;;;;;6225814;28;20136;-75
2021/07/03 08:13:21;;;;;;;0.95;0.70;;;23.80;57.40;;;;;;6216395;28;20033;-73
2021/07/03 08:16:22;;;;;;;1.10;0.85;;;23.80;57.40;;;;;;6238063;28;20021;-73
2021/07/03 08:19:23;;;;;;;1.48;1.00;;;23.80;57.40;;;;;;6237929;28;20370;-72
2021/07/03 08:22:24;;;;;;;0.95;0.93;;;23.80;57.40;;;;;;6237940;28;20026;-73
2021/07/03 08:25:24;;;;;;;0.98;0.90;;;23.80;57.40;;;;;;6236844;28;20368;-73
2021/07/03 08:28:26;;;;;;;0.80;0.75;;;23.80;57.40;;;;;;6237039;28;20025;-74
2021/07/03 08:31:27;;;;;;;1.00;0.82;;;23.80;57.40;;;;;;6237834;28;20369;-72
2021/07/03 08:34:28;;;;;;;0.70;0.70;;;23.80;57.40;;;;;;6236510;28;20030;-72
2021/07/03 08:37:28;;;;;;;1.02;0.88;;;23.80;57.40;;;;;;6238206;28;20025;-73
2021/07/03 08:40:31;;;;;;;0.95;0.85;;;23.80;57.40;;;;;;6236158;28;20490;-72
2021/07/03 08:43:31;;;;;;;0.63;0.63;;;23.80;57.40;;;;;;6236286;28;20030;-74
2021/07/03 08:46:32;;;;;;;0.80;0.80;;;23.80;57.50;;;;;;6235961;28;20014;-76
2021/07/03 08:49:32;;;;;;;1.17;1.00;;;23.80;57.40;;;;;;6237493;28;20474;-74
2021/07/03 08:52:33;;;;;;;0.80;0.80;;;23.80;57.40;;;;;;6235678;28;20039;-72
2021/07/03 08:55:35;;;;;;;0.70;0.70;;;23.80;57.40;;;;;;6227482;28;20022;-73
2021/07/03 08:58:36;;;;;;;0.90;0.70;;;23.80;57.50;;;;;;6237186;28;20477;-73
2021/07/03 09:01:56;;;;;;;1.05;0.80;;;23.80;57.40;;;;;;6237050;28;20026;-73
2021/07/03 09:04:57;;;;;;;0.82;0.70;;;23.80;58.10;;;;;;6236641;28;20393;-72
2021/07/03 09:07:58;;;;;;;0.80;0.80;;;23.80;57.40;;;;;;6235833;28;20025;-72
2021/07/03 09:11:03;;;;;;;1.05;0.90;;;23.80;57.40;;;;;;6224191;28;20525;-72
2021/07/03 09:14:07;;;;;;;;;;;23.80;57.50;;;;;;6212810;28;20021;-72
2021/07/03 09:17:07;;;;;;;0.98;0.88;;;23.80;57.40;;;;;;6331709;28;19935;-74
2021/07/03 09:20:08;;;;;;;1.08;1.00;;;23.80;57.40;;;;;;6315925;28;20026;-72
2021/07/03 09:23:18;;;;;;;0.98;0.90;;;23.80;57.40;;;;;;6235476;28;20105;-72
2021/07/03 09:26:18;;;;;;;0.70;0.70;;;23.80;57.40;;;;;;6234909;28;20064;-72
2021/07/03 09:29:19;;;;;;;0.90;0.80;;;23.80;57.40;;;;;;6236594;28;20021;-72
2021/07/03 09:32:26;;;;;;;1.00;0.80;;;23.80;57.40;;;;;;6236217;28;20047;-72
2021/07/03 09:35:27;;;;;;;0.70;0.70;;;23.80;57.40;;;;;;6236144;28;20025;-72
2021/07/03 09:38:49;;;;;;;1.00;0.90;;;23.80;57.40;;;;;;6216635;28;20796;-72
2021/07/03 09:41:50;;;;;;;1.02;0.93;;;23.80;57.40;;;;;;6309685;28;20044;-72
2021/07/03 09:44:57;;;;;;;0.80;0.80;;;23.80;57.40;;;;;;6312069;28;20013;-73
2021/07/03 09:48:07;;;;;;;0.88;0.70;;;23.80;57.40;;;;;;6311726;28;20023;-71
2021/07/03 09:51:08;;;;;;;1.00;0.90;;;23.80;57.40;;;;;;6312143;28;20016;-70
2021/07/03 09:54:30;;;;;;;0.82;0.80;;;23.80;57.40;;;;;;6311778;28;20067;-72
2021/07/03 09:57:34;;;;;;;1.10;0.90;;;23.80;57.50;;;;;;6323969;28;20016;-72
2021/07/03 10:00:37;;;;;;;1.10;1.00;;;23.80;57.40;;;;;;6313398;28;20024;-71
2021/07/03 10:03:39;;;;;;;2.50;0.90;;;23.80;57.40;;;;;;6311785;28;20022;-74
2021/07/03 10:07:02;;;;;;;1.20;0.90;;;23.80;57.30;;;;;;6323520;28;20019;-70
2021/07/03 10:10:05;;;;;;;1.00;0.82;;;23.80;57.30;;;;;;6287252;28;20039;-71
2021/07/03 10:13:10;;;;;;;1.77;0.95;;;23.80;58.10;;;;;;6309732;28;20058;-74
2021/07/03 10:16:13;;;;;;;;;;;23.80;57.40;;;;;;6316291;28;20567;-73
2021/07/03 10:19:16;;;;;;;3.05;0.90;;;23.80;57.40;;;;;;6319678;28;19904;-70
2021/07/03 10:22:22;;;;;;;1.08;0.90;;;23.80;57.40;;;;;;6325898;28;20137;-71
2021/07/03 10:25:54;;;;;;;0.70;0.70;;;23.80;57.50;;;;;;6311116;28;20554;-71
2021/07/03 10:28:55;;;;;;;1.25;1.00;;;23.80;57.60;;;;;;6295853;28;20032;-71
2021/07/03 10:31:56;;;;;;;1.80;0.98;;;23.80;57.50;;;;;;6314840;28;20020;-71
2021/07/03 10:35:16;;;;;;;1.25;1.08;;;23.80;57.50;;;;;;6295912;28;20082;-72
2021/07/03 10:38:23;;;;;;;1.70;1.40;;;23.80;57.50;;;;;;6309938;28;20028;-70
2021/07/03 10:41:30;;;;;;;1.85;1.25;;;23.80;57.50;;;;;;6312291;28;20082;-70
2021/07/03 10:44:41;;;;;;;3.92;1.63;;;23.80;57.50;;;;;;6312701;28;20024;-70
2021/07/03 10:47:43;;;;;;;2.92;1.40;;;23.80;57.50;;;;;;6313592;28;20036;-71
2021/07/03 10:50:43;;;;;;;2.88;1.80;;;23.80;57.50;;;;;;6317078;28;20512;-72
2021/07/03 10:53:44;;;;;;;1.95;1.42;;;23.80;57.50;;;;;;6332872;28;20044;-70
2021/07/03 10:57:00;;;;;;;2.42;1.45;;;23.80;57.50;;;;;;6321021;28;20057;-71
2021/07/03 11:00:13;;;;;;;1.45;1.23;;;23.80;57.50;;;;;;6318497;28;20077;-72
2021/07/03 11:03:20;;;;;;;2.40;1.50;;;23.80;57.50;;;;;;6317435;28;20119;-72
2021/07/03 11:06:22;;;;;;;5.03;1.50;;;23.80;57.50;;;;;;6316947;28;20047;-72
2021/07/03 11:09:29;;;;;;;2.13;1.40;;;23.80;57.50;;;;;;6317764;28;20097;-71
2021/07/03 11:12:29;;;;;;;2.40;1.20;;;23.80;57.50;;;;;;6316521;28;20304;-73
2021/07/03 11:15:36;;;;;;;1.92;1.35;;;23.80;57.50;;;;;;6317946;28;20344;-74
2021/07/03 11:18:38;;;;;;;1.58;1.08;;;23.80;57.50;;;;;;6317261;28;20437;-72
2021/07/03 11:21:39;;;;;;;3.63;1.77;;;23.80;57.50;;;;;;6316430;28;20020;-72
2021/07/03 11:24:49;;;;;;;2.53;1.40;;;23.80;57.50;;;;;;6316040;28;20107;-72
2021/07/03 11:27:50;;;;;;;2.83;1.45;;;23.80;57.50;;;;;;6316296;28;20361;-71
2021/07/03 11:30:59;;;;;;;1.70;1.23;;;23.80;57.50;;;;;;6316114;28;20024;-72
2021/07/03 11:33:59;;;;;;;1.60;1.10;;;23.80;57.50;;;;;;6317477;28;20043;-72
2021/07/03 11:37:02;;;;;;;1.70;1.33;;;23.80;57.50;;;;;;6317731;28;20036;-73
2021/07/03 11:40:33;;;;;;;2.55;1.10;;;23.80;57.50;;;;;;6317277;28;20596;-71
2021/07/03 11:43:33;;;;;;;1.80;1.20;;;23.80;57.50;;;;;;6303991;28;20460;-72
2021/07/03 11:46:34;;;;;;;2.10;1.30;;;23.80;57.50;;;;;;6317644;28;20054;-72
2021/07/03 11:49:41;;;;;;;2.67;1.52;;;23.80;57.50;;;;;;6317059;28;20020;-72
2021/07/03 11:52:47;;;;;;;2.47;1.38;;;23.80;57.50;;;;;;6316452;28;20131;-71
2021/07/03 11:55:50;;;;;;;2.97;1.35;;;23.80;57.50;;;;;;6317430;28;20020;-71
2021/07/03 11:58:51;;;;;;;2.40;1.38;;;23.80;57.50;;;;;;6316989;28;20035;-73
2021/07/03 12:01:51;;;;;;;2.55;1.50;;;23.80;57.50;;;;;;6315369;28;20060;-71
2021/07/03 12:04:52;;;;;;;1.58;1.33;;;23.80;57.50;;;;;;6316568;28;20111;-72
2021/07/03 12:08:01;;;;;;;1.48;1.25;;;23.80;57.50;;;;;;6317200;28;20024;-72
2021/07/03 12:11:05;;;;;;;2.53;1.40;;;23.80;57.50;;;;;;6316572;28;20024;-75
2021/07/03 12:14:13;;;;;;;1.92;1.30;;;23.80;57.50;;;;;;6316302;28;20027;-72
2021/07/03 12:17:19;;;;;;;2.33;1.55;;;23.80;57.50;;;;;;6316674;28;20024;-72
2021/07/03 12:20:20;;;;;;;2.35;1.63;;;23.80;57.50;;;;;;6316762;28;20035;-72
2021/07/03 12:23:23;;;;;;;1.80;1.23;;;23.80;57.50;;;;;;6314768;28;20024;-75
2021/07/03 12:26:29;;;;;;;1.60;1.20;;;23.80;57.50;;;;;;6291739;28;20020;-72
2021/07/03 12:29:33;;;;;;;1.92;1.17;;;23.80;57.50;;;;;;6298767;28;20032;-73
2021/07/03 12:32:33;;;;;;;1.98;1.30;;;23.80;57.50;;;;;;6316455;28;20514;-73
2021/07/03 12:35:36;;;;;;;2.22;1.50;;;23.80;57.50;;;;;;6314878;28;20032;-72
2021/07/03 12:38:37;;;;;;;1.70;1.20;;;23.80;57.50;;;;;;6314708;28;20020;-74
2021/07/03 12:41:39;;;;;;;2.10;1.38;;;23.80;57.50;;;;;;6316261;28;20027;-73
2021/07/03 12:44:47;;;;;;;2.28;1.38;;;23.80;57.50;;;;;;6315013;28;20024;-72
2021/07/03 12:47:48;;;;;;;2.20;1.42;;;23.80;57.50;;;;;;6314245;28;20024;-72
2021/07/03 12:50:58;;;;;;;2.35;1.75;;;23.80;57.50;;;;;;6315992;28;20208;-72
2021/07/03 12:54:02;;;;;;;2.10;1.20;;;23.80;57.50;;;;;;6313770;28;20048;-73
2021/07/03 12:57:04;;;;;;;2.58;1.42;;;23.80;57.50;;;;;;6314458;28;20035;-72
2021/07/03 13:00:05;;;;;;;1.40;1.15;;;23.80;57.50;;;;;;6313889;28;20413;-71
2021/07/03 13:03:05;;;;;;;2.45;1.63;;;23.80;57.50;;;;;;6314297;28;20020;-72
2021/07/03 13:06:07;;;;;;;1.40;1.10;;;23.80;57.50;;;;;;6315308;28;20040;-72
2021/07/03 13:09:08;;;;;;;1.80;1.10;;;23.80;57.50;;;;;;6315455;28;20062;-73
2021/07/03 13:12:10;;;;;;;1.55;1.20;;;23.80;57.50;;;;;;6315661;28;20409;-72
2021/07/03 13:15:11;;;;;;;2.25;1.30;;;23.80;57.50;;;;;;6313398;28;20056;-71
2021/07/03 13:18:14;;;;;;;1.48;1.20;;;23.80;57.50;;;;;;6315515;28;20032;-72
2021/07/03 13:21:15;;;;;;;1.15;0.95;;;23.80;57.50;;;;;;6314242;28;20027;-73
2021/07/03 13:24:15;;;;;;;1.20;1.10;;;23.80;58.20;;;;;;6314087;28;20016;-71
2021/07/03 13:27:16;;;;;;;1.73;1.10;;;23.80;57.50;;;;;;6313199;28;20023;-73
2021/07/03 13:30:18;;;;;;;2.10;1.27;;;23.80;57.50;;;;;;6315077;28;20024;-72
2021/07/03 13:33:18;;;;;;;1.85;1.40;;;23.80;57.50;;;;;;6313502;28;20036;-73
2021/07/03 13:36:19;;;;;;;1.75;1.25;;;23.80;57.60;;;;;;6313752;28;20504;-73
2021/07/03 13:39:19;;;;;;;4.68;1.42;;;23.80;57.50;;;;;;6315300;28;20028;-72
2021/07/03 13:42:23;;;;;;;1.85;1.25;;;23.80;57.50;;;;;;6313241;28;20112;-73
2021/07/03 13:45:23;;;;;;;1.88;1.33;;;23.80;57.50;;;;;;6314570;28;20012;-73
2021/07/03 13:48:24;;;;;;;1.55;1.20;;;23.80;57.50;;;;;;6313173;28;20427;-72
2021/07/03 13:51:25;;;;;;;1.70;1.23;;;23.80;57.50;;;;;;6314689;28;20027;-72
2021/07/03 13:54:25;;;;;;;1.15;1.00;;;23.80;57.50;;;;;;6314173;28;20040;-71
2021/07/03 13:57:26;;;;;;;1.48;1.23;;;23.80;57.50;;;;;;6312982;28;20539;-72
2021/07/03 14:00:27;;;;;;;1.35;1.00;;;23.80;57.50;;;;;;6313935;28;20096;-72
2021/07/03 14:03:27;;;;;;;1.75;1.30;;;23.80;57.50;;;;;;6313052;28;20056;-71
2021/07/03 14:06:28;;;;;;;1.40;1.20;;;23.80;57.50;;;;;;6313995;28;20767;-71
2021/07/03 14:09:28;;;;;;;1.27;1.00;;;23.80;57.50;;;;;;6313304;28;20399;-72
2021/07/03 14:12:31;;;;;;;1.30;1.20;;;23.80;57.50;;;;;;6314105;28;20032;-71
2021/07/03 14:15:32;;;;;;;1.58;1.05;;;23.80;57.50;;;;;;6312895;28;20055;-72
2021/07/03 14:18:33;;;;;;;1.48;1.20;;;23.80;57.50;;;;;;6314571;28;20032;-72
2021/07/03 14:21:34;;;;;;;1.40;1.17;;;23.80;57.50;;;;;;6312889;28;20084;-71
2021/07/03 14:24:34;;;;;;;1.45;1.20;;;23.80;57.50;;;;;;6314244;28;20025;-72
2021/07/03 14:27:35;;;;;;;1.67;1.13;;;23.80;57.50;;;;;;6314229;28;20028;-72
2021/07/03 14:30:37;;;;;;;2.05;1.42;;;23.80;57.50;;;;;;6312441;28;20016;-72
2021/07/03 14:33:38;;;;;;;1.02;0.80;;;23.80;57.50;;;;;;6313726;28;20085;-72
2021/07/03 14:36:39;;;;;;;2.05;1.10;;;23.80;57.50;;;;;;6314245;28;20028;-71
2021/07/03 14:39:41;;;;;;;1.90;1.10;;;23.80;57.50;;;;;;6314187;28;20031;-72
2021/07/03 14:42:41;;;;;;;1.48;1.10;;;23.80;57.50;;;;;;6312767;28;20507;-72
2021/07/03 14:45:42;;;;;;;1.90;1.20;;;23.80;57.50;;;;;;6314513;28;20020;-72
2021/07/03 14:48:43;;;;;;;1.70;1.27;;;23.80;57.50;;;;;;6312550;28;20024;-72
2021/07/03 14:51:44;;;;;;;1.67;1.13;;;23.80;57.50;;;;;;6313713;28;20477;-72
2021/07/03 14:54:45;;;;;;;2.08;1.17;;;23.80;57.50;;;;;;6313361;28;20381;-72
2021/07/03 14:57:46;;;;;;;1.20;1.08;;;23.80;57.50;;;;;;6313600;28;20056;-72
2021/07/03 15:00:46;;;;;;;1.50;1.17;;;23.80;57.50;;;;;;6311836;28;20467;-71
2021/07/03 15:03:47;;;;;;;1.27;0.98;;;23.80;57.50;;;;;;6312567;28;20542;-72
2021/07/03 15:06:48;;;;;;;1.27;1.10;;;23.80;57.50;;;;;;6313661;28;20250;-72
2021/07/03 15:09:48;;;;;;;1.40;1.25;;;23.80;57.50;;;;;;6312690;28;20020;-75
2021/07/03 15:12:49;;;;;;;1.30;1.10;;;23.80;57.50;;;;;;6313935;28;20024;-72
2021/07/03 15:15:49;;;;;;;1.60;1.17;;;23.80;57.50;;;;;;6311855;28;20032;-72
2021/07/03 15:18:50;;;;;;;1.40;1.20;;;23.80;57.50;;;;;;6312008;28;20107;-74
2021/07/03 15:21:51;;;;;;;1.55;1.10;;;23.80;58.20;;;;;;6311725;28;20543;-72
2021/07/03 15:24:51;;;;;;;1.13;0.98;;;23.80;57.50;;;;;;6313159;28;20105;-72
2021/07/03 15:27:52;;;;;;;1.02;0.93;;;23.80;57.50;;;;;;6313596;28;20099;-71
2021/07/03 15:30:53;;;;;;;1.42;1.00;;;23.80;57.50;;;;;;6313087;28;20392;-72
2021/07/03 15:33:54;;;;;;;1.42;1.00;;;23.80;57.50;;;;;;6315004;28;20092;-72
2021/07/03 15:36:56;;;;;;;2.13;1.10;;;23.80;57.50;;;;;;6317606;28;20034;-73
2021/07/03 15:39:56;;;;;;;1.23;1.00;;;23.80;57.50;;;;;;6318242;28;20438;-71
2021/07/03 15:42:57;;;;;;;1.00;0.90;;;23.80;57.50;;;;;;6317238;28;20481;-71
2021/07/03 15:45:58;;;;;;;1.25;0.93;;;23.80;57.50;;;;;;6317308;28;20032;-72
2021/07/03 15:48:58;;;;;;;0.80;0.80;;;23.80;57.50;;;;;;6316241;28;20024;-72
2021/07/03 15:51:59;;;;;;;1.25;1.10;;;23.80;57.50;;;;;;6317397;28;20052;-72